createdAt,value
2023-02-19T00:00:18.487Z,8.80
2023-02-19T00:02:47.952Z,7.95
2023-02-19T00:05:14.674Z,9.35
2023-02-19T00:07:41.266Z,6.07
2023-02-19T00:10:08.171Z,7.13
2023-02-19T00:12:34.811Z,8.63
2023-02-19T00:15:01.385Z,9.10
2023-02-19T00:17:31.294Z,9.68
2023-02-19T00:19:58.146Z,9.80
2023-02-19T00:22:24.890Z,10.27
2023-02-19T00:24:51.480Z,11.43
2023-02-19T00:27:18.165Z,8.82
2023-02-19T00:29:44.822Z,9.65
2023-02-19T00:32:11.501Z,9.80
2023-02-19T00:34:39.494Z,9.35
2023-02-19T00:37:06.189Z,7.97
2023-02-19T00:39:32.993Z,7.78
2023-02-19T00:41:59.668Z,7.95
2023-02-19T00:44:26.419Z,7.53
2023-02-19T00:46:52.988Z,8.68
2023-02-19T00:49:22.385Z,8.18
2023-02-19T00:51:52.108Z,10.63
2023-02-19T00:54:19.489Z,10.68
2023-02-19T00:56:46.148Z,8.07
2023-02-19T00:59:13.002Z,8.82
2023-02-19T01:01:39.858Z,8.63
2023-02-19T01:04:07.105Z,8.68
2023-02-19T01:06:33.817Z,9.15
2023-02-19T01:09:02.437Z,8.23
2023-02-19T01:11:29.169Z,6.38
2023-02-19T01:13:57.587Z,6.88
2023-02-19T01:16:24.428Z,6.72
2023-02-19T01:18:51.407Z,10.25
2023-02-19T01:21:19.992Z,7.15
2023-02-19T01:23:47.237Z,10.25
2023-02-19T01:26:17.752Z,8.05
2023-02-19T01:28:45.370Z,6.78
2023-02-19T01:31:14.187Z,6.15
2023-02-19T01:33:44.733Z,7.95
2023-02-19T01:36:11.338Z,6.47
2023-02-19T01:38:38.010Z,5.32
2023-02-19T01:41:06.996Z,9.05
2023-02-19T01:43:55.236Z,9.90
2023-02-19T01:46:25.197Z,9.30
2023-02-19T01:48:52.807Z,6.35
2023-02-19T01:51:21.133Z,7.38
2023-02-19T01:53:53.832Z,7.10
2023-02-19T01:56:22.551Z,8.63
2023-02-19T01:58:50.803Z,8.32
2023-02-19T02:01:17.419Z,7.25
2023-02-19T02:03:47.260Z,9.40
2023-02-19T02:06:19.983Z,5.97
2023-02-19T02:08:47.199Z,9.00
2023-02-19T02:11:14.107Z,8.27
2023-02-19T02:13:41.374Z,7.38
2023-02-19T02:16:27.133Z,6.45
2023-02-19T02:19:01.749Z,5.00
2023-02-19T02:21:40.606Z,7.63
2023-02-19T02:24:24.853Z,10.20
2023-02-19T02:27:10.902Z,7.85
2023-02-19T02:30:10.607Z,6.82
2023-02-19T02:32:43.136Z,6.07
2023-02-19T02:35:13.309Z,9.43
2023-02-19T02:37:43.330Z,7.95
2023-02-19T02:40:12.022Z,8.70
2023-02-19T02:42:40.102Z,8.25
2023-02-19T02:45:25.310Z,7.60
2023-02-19T02:47:56.548Z,10.10
2023-02-19T02:50:27.346Z,8.82
2023-02-19T02:52:59.020Z,7.07
2023-02-19T02:55:29.417Z,7.78
2023-02-19T02:57:56.503Z,9.55
2023-02-19T03:00:27.479Z,6.53
2023-02-19T03:02:55.794Z,7.65
2023-02-19T03:05:24.971Z,7.82
2023-02-19T03:07:56.351Z,10.05
2023-02-19T03:10:28.733Z,10.68
2023-02-19T03:12:58.065Z,11.90
2023-02-19T03:15:31.263Z,10.27
2023-02-19T03:18:01.856Z,9.20
2023-02-19T03:20:31.213Z,10.60
2023-02-19T03:23:00.988Z,8.35
2023-02-19T03:25:31.617Z,11.50
2023-02-19T03:28:01.308Z,10.02
2023-02-19T03:30:33.527Z,16.77
2023-02-19T03:33:04.789Z,14.32
2023-02-19T03:35:34.774Z,13.95
2023-02-19T03:38:08.756Z,11.55
2023-02-19T03:40:41.453Z,6.80
2023-02-19T03:43:17.082Z,10.35
2023-02-19T03:45:52.064Z,11.50
2023-02-19T03:48:27.375Z,12.45
2023-02-19T03:51:03.258Z,9.40
2023-02-19T03:53:34.644Z,9.85
2023-02-19T03:56:09.938Z,8.70
2023-02-19T03:58:44.632Z,10.20
2023-02-19T04:01:17.130Z,10.90
2023-02-19T04:03:48.907Z,12.03
2023-02-19T04:06:22.303Z,8.40
2023-02-19T04:11:21.149Z,9.27
2023-02-19T04:13:54.785Z,9.93
2023-02-19T04:16:27.483Z,8.88
2023-02-19T04:18:59.023Z,7.80
2023-02-19T04:21:28.558Z,11.82
2023-02-19T04:23:59.649Z,16.83
2023-02-19T04:26:26.531Z,7.70
2023-02-19T04:28:54.056Z,8.25
2023-02-19T04:31:21.019Z,10.20
2023-02-19T04:33:49.022Z,11.80
2023-02-19T04:36:15.651Z,10.43
2023-02-19T04:38:42.232Z,17.08
2023-02-19T04:41:09.723Z,9.50
2023-02-19T04:43:36.391Z,9.38
2023-02-19T04:46:03.645Z,7.80
2023-02-19T04:48:30.298Z,5.55
2023-02-19T04:50:58.277Z,7.88
2023-02-19T04:53:24.933Z,8.30
2023-02-19T04:55:51.558Z,8.88
2023-02-19T04:58:18.098Z,7.78
2023-02-19T05:00:44.759Z,10.43
2023-02-19T05:03:11.401Z,7.72
2023-02-19T05:05:38.070Z,10.57
2023-02-19T05:08:06.155Z,10.75
2023-02-19T05:10:32.719Z,10.45
2023-02-19T05:12:59.386Z,6.22
2023-02-19T05:15:25.939Z,11.68
2023-02-19T05:17:52.583Z,6.68
2023-02-19T05:20:19.277Z,9.30
2023-02-19T05:22:45.923Z,9.32
2023-02-19T05:25:14.174Z,8.02
2023-02-19T05:27:40.794Z,11.27
2023-02-19T05:30:08.465Z,11.40
2023-02-19T05:32:35.213Z,8.68
2023-02-19T05:35:02.041Z,9.65
2023-02-19T05:37:28.663Z,6.68
2023-02-19T05:39:55.320Z,6.88
2023-02-19T05:42:23.291Z,9.45
2023-02-19T05:44:49.921Z,10.43
2023-02-19T05:47:16.551Z,6.78
2023-02-19T05:49:43.100Z,6.90
2023-02-19T05:52:09.691Z,9.02
2023-02-19T05:54:36.265Z,12.02
2023-02-19T05:57:02.960Z,8.77
2023-02-19T05:59:30.992Z,12.15
2023-02-19T06:01:57.628Z,9.48
2023-02-19T06:04:24.222Z,6.80
2023-02-19T06:06:50.849Z,8.25
2023-02-19T06:09:17.639Z,6.95
2023-02-19T06:11:44.755Z,12.20
2023-02-19T06:14:12.706Z,10.98
2023-02-19T06:16:41.134Z,9.63
2023-02-19T06:19:07.849Z,6.97
2023-02-19T06:21:34.988Z,12.00
2023-02-19T06:24:05.438Z,9.90
2023-02-19T06:26:32.183Z,6.95
2023-02-19T06:28:58.791Z,12.88
2023-02-19T06:31:25.530Z,11.63
2023-02-19T06:33:53.606Z,12.20
2023-02-19T06:36:22.186Z,10.10
2023-02-19T06:38:49.288Z,6.10
2023-02-19T06:41:16.543Z,8.45
2023-02-19T06:43:43.263Z,7.72
2023-02-19T06:46:12.389Z,11.32
2023-02-19T06:48:40.760Z,10.75
2023-02-19T06:51:11.788Z,10.48
2023-02-19T06:53:38.693Z,12.85
2023-02-19T06:56:07.205Z,12.73
2023-02-19T06:58:34.202Z,10.40
2023-02-19T07:01:01.313Z,11.48
2023-02-19T07:03:28.384Z,9.48
2023-02-19T07:05:54.967Z,12.90
2023-02-19T07:08:22.946Z,10.55
2023-02-19T07:10:54.531Z,8.77
2023-02-19T07:13:21.277Z,11.38
2023-02-19T07:15:47.916Z,9.77
2023-02-19T07:18:14.570Z,12.55
2023-02-19T07:20:41.193Z,13.07
2023-02-19T07:23:07.882Z,7.80
2023-02-19T07:25:37.753Z,10.05
2023-02-19T07:28:04.939Z,5.50
2023-02-19T07:30:31.598Z,8.55
2023-02-19T07:32:58.370Z,11.27
2023-02-19T07:35:25.050Z,10.23
2023-02-19T07:37:51.702Z,10.20
2023-02-19T07:40:18.539Z,9.07
2023-02-19T07:42:46.534Z,12.57
2023-02-19T07:45:13.418Z,6.90
2023-02-19T07:47:40.205Z,7.40
2023-02-19T07:50:07.859Z,7.47
2023-02-19T07:52:34.578Z,9.18
2023-02-19T07:55:01.357Z,5.90
2023-02-19T07:57:28.282Z,7.88
2023-02-19T07:59:57.286Z,6.90
2023-02-19T08:02:23.980Z,7.90
2023-02-19T08:04:50.645Z,6.82
2023-02-19T08:07:17.375Z,9.90
2023-02-19T08:09:44.032Z,5.07
2023-02-19T08:12:11.769Z,6.68
2023-02-19T08:14:38.495Z,7.13
2023-02-19T08:17:06.538Z,8.02
2023-02-19T08:19:33.201Z,8.32
2023-02-19T08:21:59.943Z,7.75
2023-02-19T08:24:26.696Z,7.32
2023-02-19T08:26:53.332Z,4.68
2023-02-19T08:29:20.077Z,5.40
2023-02-19T08:31:47.026Z,8.77
2023-02-19T08:34:15.267Z,12.40
2023-02-19T08:36:41.984Z,6.18
2023-02-19T08:39:08.784Z,4.85
2023-02-19T08:41:35.653Z,7.88
2023-02-19T08:44:02.376Z,11.82
2023-02-19T08:46:29.077Z,12.43
2023-02-19T08:48:55.710Z,5.05
2023-02-19T08:51:23.741Z,9.85
2023-02-19T08:53:50.398Z,6.43
2023-02-19T08:56:17.700Z,6.43
2023-02-19T08:58:45.992Z,7.05
2023-02-19T09:01:14.926Z,7.25
2023-02-19T09:03:42.838Z,7.03
2023-02-19T09:06:14.596Z,7.70
2023-02-19T09:08:42.764Z,4.53
2023-02-19T09:11:09.907Z,8.02
2023-02-19T09:13:36.950Z,14.18
2023-02-19T09:16:04.101Z,8.00
2023-02-19T09:18:30.965Z,7.32
2023-02-19T09:21:00.456Z,5.93
2023-02-19T09:23:27.411Z,6.40
2023-02-19T09:25:58.726Z,9.60
2023-02-19T09:28:25.859Z,7.03
2023-02-19T09:30:52.602Z,11.70
2023-02-19T09:33:20.283Z,8.68
2023-02-19T09:35:46.967Z,6.65
2023-02-19T09:38:13.575Z,6.70
2023-02-19T09:40:40.421Z,6.60
2023-02-19T09:43:12.838Z,5.80
2023-02-19T09:45:40.205Z,5.75
2023-02-19T09:48:07.194Z,11.38
2023-02-19T09:50:37.533Z,8.48
2023-02-19T09:53:14.431Z,10.05
2023-02-19T09:55:43.161Z,8.65
2023-02-19T09:58:22.000Z,9.18
2023-02-19T10:00:50.347Z,7.28
2023-02-19T10:03:25.916Z,9.60
2023-02-19T10:05:53.581Z,8.05
2023-02-19T10:08:20.999Z,6.47
2023-02-19T10:10:47.830Z,6.40
2023-02-19T10:13:20.389Z,6.80
2023-02-19T10:15:49.191Z,10.73
2023-02-19T10:18:22.702Z,8.35
2023-02-19T10:20:51.408Z,5.53
2023-02-19T10:23:19.244Z,7.28
2023-02-19T10:25:49.809Z,11.85
2023-02-19T10:28:22.610Z,10.00
2023-02-19T10:30:52.863Z,8.05
2023-02-19T10:33:20.152Z,5.97
2023-02-19T10:35:56.057Z,8.18
2023-02-19T10:38:27.057Z,5.15
2023-02-19T10:41:02.062Z,4.07
2023-02-19T10:43:32.787Z,6.50
2023-02-19T10:46:02.644Z,4.38
2023-02-19T10:48:32.462Z,7.22
2023-02-19T10:51:03.383Z,15.45
2023-02-19T10:53:41.549Z,6.90
2023-02-19T10:56:10.726Z,7.07
2023-02-19T10:58:39.126Z,3.15
2023-02-19T11:01:14.993Z,3.17
2023-02-19T11:03:42.727Z,4.38
2023-02-19T11:06:11.716Z,4.65
2023-02-19T11:09:00.837Z,4.95
2023-02-19T11:11:31.866Z,3.83
2023-02-19T11:14:03.665Z,6.25
2023-02-19T11:16:43.437Z,9.10
2023-02-19T11:19:25.392Z,8.60
2023-02-19T11:21:52.534Z,2.00
2023-02-19T11:24:25.819Z,4.72
2023-02-19T11:26:53.246Z,6.15
2023-02-19T11:29:23.893Z,6.30
2023-02-19T11:31:50.704Z,6.40
2023-02-19T11:34:30.696Z,2.67
2023-02-19T11:37:12.482Z,3.03
2023-02-19T11:39:41.767Z,3.42
2023-02-19T11:42:46.318Z,5.68
2023-02-19T11:45:22.524Z,6.65
2023-02-19T11:48:19.299Z,2.47
2023-02-19T11:50:57.816Z,4.30
2023-02-19T11:53:27.312Z,5.40
2023-02-19T11:56:14.364Z,3.85
2023-02-19T11:59:01.667Z,6.88
2023-02-19T12:01:57.024Z,3.20
2023-02-19T12:04:57.576Z,5.18
2023-02-19T12:07:41.998Z,6.53
2023-02-19T12:10:17.379Z,4.47
2023-02-19T12:12:57.939Z,6.43
2023-02-19T12:15:38.388Z,4.78
2023-02-19T12:18:23.522Z,6.32
2023-02-19T12:21:02.957Z,3.70
2023-02-19T12:23:54.972Z,5.45
2023-02-19T12:26:27.089Z,3.72
2023-02-19T12:29:07.649Z,11.20
2023-02-19T12:31:52.204Z,3.35
2023-02-19T12:34:40.007Z,5.85
2023-02-19T12:37:20.148Z,8.52
2023-02-19T12:39:58.527Z,9.68
2023-02-19T12:42:40.370Z,5.15
2023-02-19T12:45:16.114Z,7.90
2023-02-19T12:47:47.154Z,5.35
2023-02-19T12:50:20.516Z,3.47
2023-02-19T12:52:50.992Z,4.85
2023-02-19T12:55:22.519Z,8.55
2023-02-19T12:57:51.122Z,10.70
2023-02-19T13:00:30.508Z,8.80
2023-02-19T13:03:03.020Z,4.05
2023-02-19T13:05:42.129Z,5.30
2023-02-19T13:08:15.664Z,4.47
2023-02-19T13:10:46.081Z,5.50
2023-02-19T13:13:20.475Z,4.65
2023-02-19T13:15:52.290Z,8.15
2023-02-19T13:18:22.888Z,5.93
2023-02-19T13:20:51.949Z,4.20
2023-02-19T13:23:23.622Z,6.07
2023-02-19T13:26:09.010Z,6.20
2023-02-19T13:28:50.022Z,3.58
2023-02-19T13:31:33.853Z,4.20
2023-02-19T13:34:11.107Z,4.00
2023-02-19T13:36:40.530Z,3.33
2023-02-19T13:39:07.953Z,5.18
2023-02-19T13:41:39.914Z,3.05
2023-02-19T13:44:15.490Z,4.80
2023-02-19T13:46:44.218Z,3.63
2023-02-19T13:49:48.530Z,5.18
2023-02-19T13:55:44.571Z,4.22
2023-02-19T13:58:54.279Z,4.75
2023-02-19T14:02:04.311Z,8.75
2023-02-19T14:04:45.268Z,2.47
2023-02-19T14:07:49.589Z,4.47
2023-02-19T14:12:57.473Z,4.00
2023-02-19T14:15:43.915Z,3.75
2023-02-19T14:18:40.602Z,3.50
2023-02-19T14:21:16.149Z,8.20
2023-02-19T14:23:43.538Z,10.65
2023-02-19T14:26:10.601Z,4.90
2023-02-19T14:28:43.360Z,6.68
2023-02-19T14:31:18.414Z,8.63
2023-02-19T14:33:48.253Z,4.55
2023-02-19T14:36:27.247Z,8.25
2023-02-19T14:38:56.575Z,5.80
2023-02-19T14:41:24.319Z,2.67
2023-02-19T14:43:54.059Z,4.93
2023-02-19T14:46:29.522Z,7.32
2023-02-19T14:49:02.007Z,5.32
2023-02-19T14:51:33.425Z,9.02
2023-02-19T14:54:05.051Z,6.43
2023-02-19T14:56:34.591Z,3.08
2023-02-19T14:59:20.622Z,4.18
2023-02-19T15:01:54.803Z,2.08
2023-02-19T15:04:22.664Z,6.32
2023-02-19T15:06:51.631Z,4.50
2023-02-19T15:09:19.202Z,4.70
2023-02-19T15:11:46.144Z,7.40
2023-02-19T15:14:19.925Z,10.32
2023-02-19T15:16:47.595Z,5.93
2023-02-19T15:19:17.108Z,4.55
2023-02-19T15:21:46.750Z,5.72
2023-02-19T15:24:17.220Z,4.18
2023-02-19T15:26:48.037Z,3.47
2023-02-19T15:29:17.332Z,4.18
2023-02-19T15:31:48.459Z,6.45
2023-02-19T15:34:17.212Z,4.47
2023-02-19T15:36:44.044Z,6.15
2023-02-19T15:39:19.924Z,8.55
2023-02-19T15:41:53.040Z,4.53
2023-02-19T15:44:39.510Z,6.03
2023-02-19T15:47:13.756Z,3.15
2023-02-19T15:49:46.842Z,3.67
2023-02-19T15:52:33.647Z,8.18
2023-02-19T15:55:11.535Z,6.82
2023-02-19T15:57:44.877Z,8.63
2023-02-19T16:00:16.612Z,4.97
2023-02-19T16:02:43.845Z,3.60
2023-02-19T16:05:15.256Z,4.22
2023-02-19T16:07:41.942Z,5.03
2023-02-19T16:10:20.557Z,6.40
2023-02-19T16:12:57.750Z,5.68
2023-02-19T16:15:25.195Z,6.57
2023-02-19T16:17:52.579Z,7.53
2023-02-19T16:20:22.467Z,3.22
2023-02-19T16:22:50.398Z,8.07
2023-02-19T16:25:32.796Z,5.97
2023-02-19T16:27:59.618Z,4.57
2023-02-19T16:30:32.192Z,7.05
2023-02-19T16:33:35.497Z,6.50
2023-02-19T16:36:36.326Z,7.38
2023-02-19T16:39:20.334Z,8.45
2023-02-19T16:42:18.531Z,4.25
2023-02-19T16:44:48.994Z,5.57
2023-02-19T16:47:24.011Z,7.32
2023-02-19T16:49:51.033Z,9.20
2023-02-19T16:52:17.773Z,4.20
2023-02-19T16:54:44.417Z,2.95
2023-02-19T16:57:11.341Z,6.10
2023-02-19T16:59:39.420Z,11.25
2023-02-19T17:02:07.726Z,8.05
2023-02-19T17:04:34.577Z,3.58
2023-02-19T17:07:01.949Z,7.07
2023-02-19T17:09:28.974Z,7.18
2023-02-19T17:11:55.631Z,5.65
2023-02-19T17:14:22.252Z,7.50
2023-02-19T17:16:50.354Z,10.25
2023-02-19T17:19:19.014Z,10.02
2023-02-19T17:21:46.839Z,7.15
2023-02-19T17:24:14.248Z,7.43
2023-02-19T17:26:40.866Z,7.60
2023-02-19T17:29:11.972Z,8.48
2023-02-19T17:31:38.655Z,10.00
2023-02-19T17:34:06.720Z,7.80
2023-02-19T17:36:33.361Z,6.10
2023-02-19T17:39:01.902Z,12.20
2023-02-19T17:41:29.441Z,11.30
2023-02-19T17:43:56.244Z,10.40
2023-02-19T17:46:24.745Z,12.63
2023-02-19T17:48:51.977Z,13.60
2023-02-19T17:51:20.398Z,15.77
2023-02-19T17:53:47.220Z,12.65
2023-02-19T17:56:20.138Z,12.52
2023-02-19T17:58:47.199Z,12.35
2023-02-19T18:01:14.236Z,10.13
2023-02-19T18:03:41.129Z,13.38
2023-02-19T18:06:08.104Z,12.75
2023-02-19T18:08:36.147Z,12.15
2023-02-19T18:11:03.163Z,8.70
2023-02-19T18:13:30.176Z,8.00
2023-02-19T18:15:56.950Z,11.35
2023-02-19T18:18:23.577Z,14.27
2023-02-19T18:20:50.212Z,27.73
2023-02-19T18:23:16.996Z,43.55
2023-02-19T18:25:45.069Z,38.75
2023-02-19T18:28:11.632Z,48.58
2023-02-19T18:30:38.313Z,32.67
2023-02-19T18:33:04.916Z,44.70
2023-02-19T18:35:33.156Z,33.60
2023-02-19T18:38:00.722Z,24.10
2023-02-19T18:40:27.577Z,24.92
2023-02-19T18:42:55.760Z,22.60
2023-02-19T18:45:22.546Z,22.23
2023-02-19T18:47:50.156Z,18.15
2023-02-19T18:50:18.488Z,16.25
2023-02-19T18:52:45.470Z,23.23
2023-02-19T18:55:12.286Z,29.17
2023-02-19T18:57:38.948Z,34.85
2023-02-19T19:00:08.429Z,33.08
2023-02-19T19:02:48.293Z,25.13
2023-02-19T19:05:17.520Z,18.13
2023-02-19T19:07:44.364Z,11.55
2023-02-19T19:10:11.110Z,12.30
2023-02-19T19:12:37.750Z,9.02
2023-02-19T19:15:05.142Z,8.13
2023-02-19T19:17:33.286Z,8.43
2023-02-19T19:19:59.941Z,13.82
2023-02-19T19:22:26.663Z,16.52
2023-02-19T19:24:53.445Z,20.55
2023-02-19T19:27:20.900Z,21.27
2023-02-19T19:29:47.886Z,20.83
2023-02-19T19:32:14.948Z,15.60
2023-02-19T19:34:43.135Z,11.48
2023-02-19T19:37:09.769Z,12.48
2023-02-19T19:39:36.492Z,12.57
2023-02-19T19:42:03.348Z,13.65
2023-02-19T19:44:30.101Z,11.10
2023-02-19T19:46:57.467Z,16.42
2023-02-19T19:49:24.088Z,9.57
2023-02-19T19:51:52.281Z,15.70
2023-02-19T19:54:19.138Z,9.25
2023-02-19T19:56:47.531Z,13.93
2023-02-19T19:59:16.106Z,22.10
2023-02-19T20:01:47.860Z,12.95
2023-02-19T20:04:14.429Z,7.03
2023-02-19T20:06:41.271Z,11.65
2023-02-19T20:09:09.334Z,5.38
2023-02-19T20:11:36.029Z,11.02
2023-02-19T20:14:02.726Z,7.68
2023-02-19T20:16:29.301Z,8.30
2023-02-19T20:18:55.889Z,5.22
2023-02-19T20:21:22.537Z,8.18
2023-02-19T20:23:49.193Z,11.98
2023-02-19T20:26:23.458Z,10.65
2023-02-19T20:28:50.196Z,12.85
2023-02-19T20:31:17.474Z,6.43
2023-02-19T20:33:44.149Z,7.15
2023-02-19T20:36:11.219Z,6.15
2023-02-19T20:38:37.843Z,10.40
2023-02-19T20:41:04.901Z,9.85
2023-02-19T20:43:32.890Z,8.23
2023-02-19T20:45:59.649Z,6.18
2023-02-19T20:48:26.207Z,9.13
2023-02-19T20:50:52.843Z,11.30
2023-02-19T20:53:19.524Z,14.73
2023-02-19T20:55:46.129Z,10.48
2023-02-19T20:58:12.723Z,8.02
2023-02-19T21:00:40.697Z,10.15
2023-02-19T21:03:07.632Z,10.75
2023-02-19T21:05:34.349Z,9.85
2023-02-19T21:08:01.072Z,11.50
2023-02-19T21:10:27.832Z,10.63
2023-02-19T21:12:54.369Z,5.70
2023-02-19T21:15:21.205Z,9.85
2023-02-19T21:17:49.327Z,7.20
2023-02-19T21:20:16.879Z,10.55
2023-02-19T21:22:43.837Z,7.30
2023-02-19T21:25:10.768Z,9.80
2023-02-19T21:27:38.612Z,11.00
2023-02-19T21:30:06.721Z,8.38
2023-02-19T21:32:33.445Z,11.45
2023-02-19T21:35:01.448Z,8.88
2023-02-19T21:37:28.112Z,8.20
2023-02-19T21:39:54.729Z,13.88
2023-02-19T21:42:21.708Z,11.00
2023-02-19T21:44:48.489Z,16.00
2023-02-19T21:47:15.140Z,10.70
2023-02-19T21:49:42.583Z,16.50
2023-02-19T21:52:10.582Z,15.48
2023-02-19T21:54:37.252Z,10.18
2023-02-19T21:57:04.136Z,4.07
2023-02-19T21:59:30.792Z,5.18
2023-02-19T22:01:57.417Z,7.47
2023-02-19T22:04:24.020Z,9.27
2023-02-19T22:06:54.221Z,12.75
2023-02-19T22:09:22.582Z,7.38
2023-02-19T22:11:49.265Z,6.05
2023-02-19T22:14:15.839Z,7.28
2023-02-19T22:16:42.562Z,9.60
2023-02-19T22:19:10.141Z,8.52
2023-02-19T22:21:41.906Z,8.40
2023-02-19T22:24:14.942Z,4.30
2023-02-19T22:26:42.976Z,5.45
2023-02-19T22:29:10.920Z,5.03
2023-02-19T22:31:37.666Z,13.20
2023-02-19T22:34:04.901Z,5.40
2023-02-19T22:36:33.243Z,8.57
2023-02-19T22:39:00.679Z,6.60
2023-02-19T22:41:27.412Z,5.30
2023-02-19T22:43:56.996Z,8.63
2023-02-19T22:46:25.748Z,9.05
2023-02-19T22:48:52.512Z,12.30
2023-02-19T22:51:22.463Z,8.77
2023-02-19T22:53:51.262Z,9.20
2023-02-19T22:56:19.632Z,6.53
2023-02-19T22:58:46.762Z,5.95
2023-02-19T23:01:15.471Z,7.72
2023-02-19T23:03:46.957Z,11.57
2023-02-19T23:06:14.293Z,5.47
2023-02-19T23:08:41.330Z,7.13
2023-02-19T23:11:08.432Z,6.90
2023-02-19T23:13:35.074Z,5.00
2023-02-19T23:16:01.737Z,7.65
2023-02-19T23:18:29.665Z,9.77
2023-02-19T23:20:56.288Z,6.65
2023-02-19T23:23:22.971Z,11.35
2023-02-19T23:25:49.643Z,4.97
2023-02-19T23:28:16.288Z,8.85
2023-02-19T23:30:43.066Z,8.98
2023-02-19T23:33:09.770Z,8.40
2023-02-19T23:35:37.729Z,8.18
2023-02-19T23:38:04.481Z,12.13
2023-02-19T23:40:31.080Z,8.93
2023-02-19T23:42:57.729Z,6.30
2023-02-19T23:45:24.406Z,7.22
2023-02-19T23:47:51.073Z,12.48
2023-02-19T23:50:18.019Z,12.85
2023-02-19T23:52:46.006Z,7.65
2023-02-19T23:55:12.687Z,9.05
2023-02-19T23:57:39.345Z,7.13
